sensor_id;sensor_type;location;lat;lon;timestamp;pressure;altitude;pressure_sealevel;temperature
11321;BMP180;5715;48.234;14.320;2023-04-26T00:01:11;98372.00;;;14.00
11321;BMP180;5715;48.234;14.320;2023-04-26T00:04:01;98377.00;;;14.10
11321;BMP180;5715;48.234;14.320;2023-04-26T00:06:49;98372.00;;;14.10
11321;BMP180;5715;48.234;14.320;2023-04-26T00:09:37;98372.00;;;14.20
11321;BMP180;5715;48.234;14.320;2023-04-26T00:12:27;98371.00;;;14.40
11321;BMP180;5715;48.234;14.320;2023-04-26T00:15:15;98366.00;;;14.30
11321;BMP180;5715;48.234;14.320;2023-04-26T00:18:02;98378.00;;;14.50
11321;BMP180;5715;48.234;14.320;2023-04-26T00:20:50;98381.00;;;14.50
11321;BMP180;5715;48.234;14.320;2023-04-26T00:23:38;98381.00;;;14.50
11321;BMP180;5715;48.234;14.320;2023-04-26T00:26:25;98382.00;;;14.80
11321;BMP180;5715;48.234;14.320;2023-04-26T00:29:13;98379.00;;;14.70
11321;BMP180;5715;48.234;14.320;2023-04-26T00:32:00;98370.00;;;14.70
11321;BMP180;5715;48.234;14.320;2023-04-26T00:34:48;98384.00;;;14.60
11321;BMP180;5715;48.234;14.320;2023-04-26T00:37:35;98377.00;;;14.60
11321;BMP180;5715;48.234;14.320;2023-04-26T00:40:23;98373.00;;;14.60
11321;BMP180;5715;48.234;14.320;2023-04-26T00:43:11;98373.00;;;14.60
11321;BMP180;5715;48.234;14.320;2023-04-26T00:45:58;98376.00;;;14.60
11321;BMP180;5715;48.234;14.320;2023-04-26T00:48:46;98375.00;;;14.60
11321;BMP180;5715;48.234;14.320;2023-04-26T00:51:35;98382.00;;;14.50
11321;BMP180;5715;48.234;14.320;2023-04-26T00:54:23;98378.00;;;14.50
11321;BMP180;5715;48.234;14.320;2023-04-26T00:57:11;98374.00;;;14.70
11321;BMP180;5715;48.234;14.320;2023-04-26T00:59:59;98378.00;;;14.80
11321;BMP180;5715;48.234;14.320;2023-04-26T01:02:46;98383.00;;;14.70
11321;BMP180;5715;48.234;14.320;2023-04-26T01:05:34;98383.00;;;14.60
11321;BMP180;5715;48.234;14.320;2023-04-26T01:08:23;98380.00;;;14.90
11321;BMP180;5715;48.234;14.320;2023-04-26T01:11:11;98387.00;;;15.00
11321;BMP180;5715;48.234;14.320;2023-04-26T01:13:58;98378.00;;;15.10
11321;BMP180;5715;48.234;14.320;2023-04-26T01:16:47;98378.00;;;15.00
11321;BMP180;5715;48.234;14.320;2023-04-26T01:19:49;98381.00;;;15.10
11321;BMP180;5715;48.234;14.320;2023-04-26T01:22:37;98387.00;;;15.10
11321;BMP180;5715;48.234;14.320;2023-04-26T01:25:25;98387.00;;;15.10
11321;BMP180;5715;48.234;14.320;2023-04-26T01:28:12;98376.00;;;15.20
11321;BMP180;5715;48.234;14.320;2023-04-26T01:30:59;98379.00;;;15.20
11321;BMP180;5715;48.234;14.320;2023-04-26T01:33:47;98379.00;;;15.30
11321;BMP180;5715;48.234;14.320;2023-04-26T01:36:35;98386.00;;;15.20
11321;BMP180;5715;48.234;14.320;2023-04-26T01:39:22;98383.00;;;15.10
11321;BMP180;5715;48.234;14.320;2023-04-26T01:42:10;98381.00;;;15.20
11321;BMP180;5715;48.234;14.320;2023-04-26T01:44:58;98387.00;;;15.20
11321;BMP180;5715;48.234;14.320;2023-04-26T01:47:45;98398.00;;;15.10
11321;BMP180;5715;48.234;14.320;2023-04-26T01:50:33;98391.00;;;15.00
11321;BMP180;5715;48.234;14.320;2023-04-26T01:53:20;98391.00;;;14.90
11321;BMP180;5715;48.234;14.320;2023-04-26T01:56:09;98402.00;;;14.90
11321;BMP180;5715;48.234;14.320;2023-04-26T01:58:56;98394.00;;;15.00
11321;BMP180;5715;48.234;14.320;2023-04-26T02:01:45;98394.00;;;14.90
11321;BMP180;5715;48.234;14.320;2023-04-26T02:04:33;98390.00;;;15.00
11321;BMP180;5715;48.234;14.320;2023-04-26T02:07:20;98398.00;;;14.90
11321;BMP180;5715;48.234;14.320;2023-04-26T02:10:08;98401.00;;;15.00
11321;BMP180;5715;48.234;14.320;2023-04-26T02:12:56;98404.00;;;15.00
11321;BMP180;5715;48.234;14.320;2023-04-26T02:15:48;98403.00;;;15.00
11321;BMP180;5715;48.234;14.320;2023-04-26T02:18:36;98399.00;;;15.00
11321;BMP180;5715;48.234;14.320;2023-04-26T02:21:23;98394.00;;;15.10
11321;BMP180;5715;48.234;14.320;2023-04-26T02:24:11;98397.00;;;14.90
11321;BMP180;5715;48.234;14.320;2023-04-26T02:26:59;98396.00;;;14.90
11321;BMP180;5715;48.234;14.320;2023-04-26T02:29:50;98396.00;;;15.10
11321;BMP180;5715;48.234;14.320;2023-04-26T02:32:38;98402.00;;;15.10
11321;BMP180;5715;48.234;14.320;2023-04-26T02:35:25;98397.00;;;15.20
11321;BMP180;5715;48.234;14.320;2023-04-26T02:38:13;98395.00;;;15.20
11321;BMP180;5715;48.234;14.320;2023-04-26T02:41:02;98404.00;;;15.20
11321;BMP180;5715;48.234;14.320;2023-04-26T02:43:50;98405.00;;;15.20
11321;BMP180;5715;48.234;14.320;2023-04-26T02:46:38;98406.00;;;15.20
11321;BMP180;5715;48.234;14.320;2023-04-26T02:49:25;98407.00;;;15.20
11321;BMP180;5715;48.234;14.320;2023-04-26T02:52:13;98402.00;;;15.40
11321;BMP180;5715;48.234;14.320;2023-04-26T02:55:02;98399.00;;;15.30
11321;BMP180;5715;48.234;14.320;2023-04-26T02:57:50;98386.00;;;15.20
11321;BMP180;5715;48.234;14.320;2023-04-26T03:00:38;98385.00;;;15.10
11321;BMP180;5715;48.234;14.320;2023-04-26T03:03:26;98382.00;;;15.10
11321;BMP180;5715;48.234;14.320;2023-04-26T03:06:14;98386.00;;;15.00
11321;BMP180;5715;48.234;14.320;2023-04-26T03:09:01;98385.00;;;14.80
11321;BMP180;5715;48.234;14.320;2023-04-26T03:11:49;98392.00;;;14.50
11321;BMP180;5715;48.234;14.320;2023-04-26T03:14:36;98397.00;;;14.60
11321;BMP180;5715;48.234;14.320;2023-04-26T03:17:24;98406.00;;;14.50
11321;BMP180;5715;48.234;14.320;2023-04-26T03:20:12;98416.00;;;14.50
11321;BMP180;5715;48.234;14.320;2023-04-26T03:23:00;98406.00;;;14.40
11321;BMP180;5715;48.234;14.320;2023-04-26T03:25:47;98400.00;;;14.40
11321;BMP180;5715;48.234;14.320;2023-04-26T03:28:37;98406.00;;;14.30
11321;BMP180;5715;48.234;14.320;2023-04-26T03:31:25;98401.00;;;14.30
11321;BMP180;5715;48.234;14.320;2023-04-26T03:34:12;98407.00;;;14.20
11321;BMP180;5715;48.234;14.320;2023-04-26T03:37:01;98403.00;;;14.20
11321;BMP180;5715;48.234;14.320;2023-04-26T03:39:49;98407.00;;;14.10
11321;BMP180;5715;48.234;14.320;2023-04-26T03:42:38;98412.00;;;14.20
11321;BMP180;5715;48.234;14.320;2023-04-26T03:45:26;98409.00;;;14.20
11321;BMP180;5715;48.234;14.320;2023-04-26T03:48:13;98413.00;;;14.20
11321;BMP180;5715;48.234;14.320;2023-04-26T03:51:02;98415.00;;;14.30
11321;BMP180;5715;48.234;14.320;2023-04-26T03:53:49;98421.00;;;14.40
11321;BMP180;5715;48.234;14.320;2023-04-26T03:56:37;98424.00;;;14.20
11321;BMP180;5715;48.234;14.320;2023-04-26T03:59:26;98421.00;;;14.40
11321;BMP180;5715;48.234;14.320;2023-04-26T04:02:13;98422.00;;;14.30
11321;BMP180;5715;48.234;14.320;2023-04-26T04:05:01;98419.00;;;14.40
11321;BMP180;5715;48.234;14.320;2023-04-26T04:07:48;98427.00;;;14.30
11321;BMP180;5715;48.234;14.320;2023-04-26T04:10:36;98431.00;;;14.40
11321;BMP180;5715;48.234;14.320;2023-04-26T04:13:24;98433.00;;;14.70
11321;BMP180;5715;48.234;14.320;2023-04-26T04:16:11;98433.00;;;14.70
11321;BMP180;5715;48.234;14.320;2023-04-26T04:18:59;98435.00;;;14.70
11321;BMP180;5715;48.234;14.320;2023-04-26T04:21:46;98439.00;;;14.70
11321;BMP180;5715;48.234;14.320;2023-04-26T04:24:34;98432.00;;;14.70
11321;BMP180;5715;48.234;14.320;2023-04-26T04:27:21;98444.00;;;14.90
11321;BMP180;5715;48.234;14.320;2023-04-26T04:30:10;98451.00;;;14.90
11321;BMP180;5715;48.234;14.320;2023-04-26T04:32:58;98451.00;;;14.80
11321;BMP180;5715;48.234;14.320;2023-04-26T04:35:46;98443.00;;;14.90
11321;BMP180;5715;48.234;14.320;2023-04-26T04:38:34;98452.00;;;14.90
11321;BMP180;5715;48.234;14.320;2023-04-26T04:41:22;98455.00;;;15.10
11321;BMP180;5715;48.234;14.320;2023-04-26T04:44:09;98464.00;;;15.20
11321;BMP180;5715;48.234;14.320;2023-04-26T04:46:57;98465.00;;;15.30
11321;BMP180;5715;48.234;14.320;2023-04-26T04:49:44;98469.00;;;15.30
11321;BMP180;5715;48.234;14.320;2023-04-26T04:52:33;98470.00;;;15.30
11321;BMP180;5715;48.234;14.320;2023-04-26T04:55:21;98472.00;;;15.40
11321;BMP180;5715;48.234;14.320;2023-04-26T04:58:08;98472.00;;;15.30
11321;BMP180;5715;48.234;14.320;2023-04-26T05:00:56;98473.00;;;15.50
11321;BMP180;5715;48.234;14.320;2023-04-26T05:03:47;98471.00;;;15.80
11321;BMP180;5715;48.234;14.320;2023-04-26T05:06:35;98479.00;;;15.90
11321;BMP180;5715;48.234;14.320;2023-04-26T05:09:23;98481.00;;;16.00
11321;BMP180;5715;48.234;14.320;2023-04-26T05:12:10;98481.00;;;15.90
11321;BMP180;5715;48.234;14.320;2023-04-26T05:14:58;98493.00;;;15.80
11321;BMP180;5715;48.234;14.320;2023-04-26T05:17:45;98492.00;;;16.20
11321;BMP180;5715;48.234;14.320;2023-04-26T05:20:33;98497.00;;;16.00
11321;BMP180;5715;48.234;14.320;2023-04-26T05:23:21;98499.00;;;16.00
11321;BMP180;5715;48.234;14.320;2023-04-26T05:26:14;98499.00;;;16.00
11321;BMP180;5715;48.234;14.320;2023-04-26T05:29:02;98500.00;;;15.80
11321;BMP180;5715;48.234;14.320;2023-04-26T05:31:50;98508.00;;;15.80
11321;BMP180;5715;48.234;14.320;2023-04-26T05:34:40;98508.00;;;15.90
11321;BMP180;5715;48.234;14.320;2023-04-26T05:37:28;98508.00;;;15.90
11321;BMP180;5715;48.234;14.320;2023-04-26T05:40:15;98516.00;;;15.90
11321;BMP180;5715;48.234;14.320;2023-04-26T05:43:03;98519.00;;;16.10
11321;BMP180;5715;48.234;14.320;2023-04-26T05:45:55;98516.00;;;16.30
11321;BMP180;5715;48.234;14.320;2023-04-26T05:48:43;98514.00;;;16.30
11321;BMP180;5715;48.234;14.320;2023-04-26T05:51:30;98520.00;;;16.50
11321;BMP180;5715;48.234;14.320;2023-04-26T05:54:18;98517.00;;;16.10
11321;BMP180;5715;48.234;14.320;2023-04-26T05:57:05;98525.00;;;16.60
11321;BMP180;5715;48.234;14.320;2023-04-26T05:59:54;98526.00;;;17.00
11321;BMP180;5715;48.234;14.320;2023-04-26T06:02:41;98529.00;;;16.70
11321;BMP180;5715;48.234;14.320;2023-04-26T06:05:30;98522.00;;;16.70
11321;BMP180;5715;48.234;14.320;2023-04-26T06:08:18;98536.00;;;16.70
11321;BMP180;5715;48.234;14.320;2023-04-26T06:11:06;98529.00;;;16.70
11321;BMP180;5715;48.234;14.320;2023-04-26T06:13:53;98521.00;;;16.70
11321;BMP180;5715;48.234;14.320;2023-04-26T06:16:41;98528.00;;;16.70
11321;BMP180;5715;48.234;14.320;2023-04-26T06:19:30;98525.00;;;17.00
11321;BMP180;5715;48.234;14.320;2023-04-26T06:22:17;98530.00;;;17.20
11321;BMP180;5715;48.234;14.320;2023-04-26T06:25:06;98534.00;;;17.20
11321;BMP180;5715;48.234;14.320;2023-04-26T06:27:55;98531.00;;;17.00
11321;BMP180;5715;48.234;14.320;2023-04-26T06:30:42;98536.00;;;17.30
11321;BMP180;5715;48.234;14.320;2023-04-26T06:33:30;98537.00;;;16.70
11321;BMP180;5715;48.234;14.320;2023-04-26T06:36:18;98538.00;;;17.00
11321;BMP180;5715;48.234;14.320;2023-04-26T06:39:05;98542.00;;;17.40
11321;BMP180;5715;48.234;14.320;2023-04-26T06:41:58;98548.00;;;17.60
11321;BMP180;5715;48.234;14.320;2023-04-26T06:44:46;98550.00;;;17.70
11321;BMP180;5715;48.234;14.320;2023-04-26T06:47:33;98554.00;;;17.60
11321;BMP180;5715;48.234;14.320;2023-04-26T06:50:21;98555.00;;;17.80
11321;BMP180;5715;48.234;14.320;2023-04-26T06:53:08;98557.00;;;17.80
11321;BMP180;5715;48.234;14.320;2023-04-26T06:55:56;98553.00;;;17.80
11321;BMP180;5715;48.234;14.320;2023-04-26T06:58:59;98556.00;;;17.80
11321;BMP180;5715;48.234;14.320;2023-04-26T07:01:47;98556.00;;;18.10
11321;BMP180;5715;48.234;14.320;2023-04-26T07:04:35;98559.00;;;18.00
11321;BMP180;5715;48.234;14.320;2023-04-26T07:07:23;98568.00;;;18.20
11321;BMP180;5715;48.234;14.320;2023-04-26T07:10:11;98561.00;;;18.30
11321;BMP180;5715;48.234;14.320;2023-04-26T07:12:59;98563.00;;;18.10
11321;BMP180;5715;48.234;14.320;2023-04-26T07:15:48;98566.00;;;18.00
11321;BMP180;5715;48.234;14.320;2023-04-26T07:18:35;98567.00;;;18.40
11321;BMP180;5715;48.234;14.320;2023-04-26T07:21:24;98574.00;;;18.20
11321;BMP180;5715;48.234;14.320;2023-04-26T07:24:13;98575.00;;;18.50
11321;BMP180;5715;48.234;14.320;2023-04-26T07:27:00;98576.00;;;18.50
11321;BMP180;5715;48.234;14.320;2023-04-26T07:29:52;98573.00;;;19.00
11321;BMP180;5715;48.234;14.320;2023-04-26T07:32:43;98569.00;;;18.80
11321;BMP180;5715;48.234;14.320;2023-04-26T07:35:30;98568.00;;;18.60
11321;BMP180;5715;48.234;14.320;2023-04-26T07:38:18;98573.00;;;18.90
11321;BMP180;5715;48.234;14.320;2023-04-26T07:41:05;98568.00;;;19.00
11321;BMP180;5715;48.234;14.320;2023-04-26T07:43:53;98564.00;;;19.20
11321;BMP180;5715;48.234;14.320;2023-04-26T07:46:41;98562.00;;;19.90
11321;BMP180;5715;48.234;14.320;2023-04-26T07:49:28;98567.00;;;19.50
11321;BMP180;5715;48.234;14.320;2023-04-26T07:52:16;98569.00;;;19.50
11321;BMP180;5715;48.234;14.320;2023-04-26T07:55:04;98565.00;;;19.00
11321;BMP180;5715;48.234;14.320;2023-04-26T07:57:52;98564.00;;;18.90
11321;BMP180;5715;48.234;14.320;2023-04-26T08:00:42;98570.00;;;19.20
11321;BMP180;5715;48.234;14.320;2023-04-26T08:03:30;98574.00;;;19.00
11321;BMP180;5715;48.234;14.320;2023-04-26T08:06:18;98571.00;;;19.60
11321;BMP180;5715;48.234;14.320;2023-04-26T08:09:06;98572.00;;;19.50
11321;BMP180;5715;48.234;14.320;2023-04-26T08:11:54;98577.00;;;19.60
11321;BMP180;5715;48.234;14.320;2023-04-26T08:14:41;98572.00;;;19.50
11321;BMP180;5715;48.234;14.320;2023-04-26T08:17:30;98568.00;;;19.70
11321;BMP180;5715;48.234;14.320;2023-04-26T08:20:18;98571.00;;;20.30
11321;BMP180;5715;48.234;14.320;2023-04-26T08:23:07;98566.00;;;19.60
11321;BMP180;5715;48.234;14.320;2023-04-26T08:25:54;98570.00;;;20.20
11321;BMP180;5715;48.234;14.320;2023-04-26T08:28:45;98568.00;;;20.30
11321;BMP180;5715;48.234;14.320;2023-04-26T08:31:32;98577.00;;;20.10
11321;BMP180;5715;48.234;14.320;2023-04-26T08:34:20;98575.00;;;20.10
11321;BMP180;5715;48.234;14.320;2023-04-26T08:37:09;98578.00;;;20.20
11321;BMP180;5715;48.234;14.320;2023-04-26T08:39:57;98577.00;;;19.90
11321;BMP180;5715;48.234;14.320;2023-04-26T08:42:45;98577.00;;;20.30
11321;BMP180;5715;48.234;14.320;2023-04-26T08:45:35;98579.00;;;19.70
11321;BMP180;5715;48.234;14.320;2023-04-26T08:48:27;98584.00;;;19.50
11321;BMP180;5715;48.234;14.320;2023-04-26T08:51:17;98573.00;;;20.10
11321;BMP180;5715;48.234;14.320;2023-04-26T08:54:05;98574.00;;;20.10
11321;BMP180;5715;48.234;14.320;2023-04-26T08:56:57;98570.00;;;19.70
11321;BMP180;5715;48.234;14.320;2023-04-26T08:59:46;98579.00;;;20.20
11321;BMP180;5715;48.234;14.320;2023-04-26T09:02:34;98577.00;;;20.20
11321;BMP180;5715;48.234;14.320;2023-04-26T09:05:23;98569.00;;;20.00
11321;BMP180;5715;48.234;14.320;2023-04-26T09:08:15;98572.00;;;20.50
11321;BMP180;5715;48.234;14.320;2023-04-26T09:11:06;98573.00;;;20.50
11321;BMP180;5715;48.234;14.320;2023-04-26T09:13:54;98576.00;;;20.40
11321;BMP180;5715;48.234;14.320;2023-04-26T09:16:41;98565.00;;;20.50
11321;BMP180;5715;48.234;14.320;2023-04-26T09:19:36;98565.00;;;20.70
11321;BMP180;5715;48.234;14.320;2023-04-26T09:22:34;98566.00;;;20.80
11321;BMP180;5715;48.234;14.320;2023-04-26T09:25:30;98568.00;;;20.70
11321;BMP180;5715;48.234;14.320;2023-04-26T09:28:21;98565.00;;;20.80
11321;BMP180;5715;48.234;14.320;2023-04-26T09:31:09;98561.00;;;20.90
11321;BMP180;5715;48.234;14.320;2023-04-26T09:33:59;98565.00;;;20.90
11321;BMP180;5715;48.234;14.320;2023-04-26T09:36:52;98572.00;;;20.90
11321;BMP180;5715;48.234;14.320;2023-04-26T09:39:41;98562.00;;;20.70
11321;BMP180;5715;48.234;14.320;2023-04-26T09:42:33;98558.00;;;20.70
11321;BMP180;5715;48.234;14.320;2023-04-26T09:45:21;98559.00;;;20.70
11321;BMP180;5715;48.234;14.320;2023-04-26T09:51:10;98549.00;;;21.70
11321;BMP180;5715;48.234;14.320;2023-04-26T09:54:00;98557.00;;;21.10
11321;BMP180;5715;48.234;14.320;2023-04-26T09:57:00;98559.00;;;21.30
11321;BMP180;5715;48.234;14.320;2023-04-26T09:59:51;98554.00;;;21.90
11321;BMP180;5715;48.234;14.320;2023-04-26T10:02:42;98553.00;;;20.40
11321;BMP180;5715;48.234;14.320;2023-04-26T10:05:31;98553.00;;;20.20
11321;BMP180;5715;48.234;14.320;2023-04-26T10:08:20;98556.00;;;20.40
11321;BMP180;5715;48.234;14.320;2023-04-26T10:11:08;98560.00;;;20.80
11321;BMP180;5715;48.234;14.320;2023-04-26T10:14:00;98553.00;;;20.70
11321;BMP180;5715;48.234;14.320;2023-04-26T10:16:48;98554.00;;;20.10
11321;BMP180;5715;48.234;14.320;2023-04-26T10:19:38;98553.00;;;19.50
11321;BMP180;5715;48.234;14.320;2023-04-26T10:22:33;98556.00;;;20.10
11321;BMP180;5715;48.234;14.320;2023-04-26T10:25:38;98557.00;;;20.50
11321;BMP180;5715;48.234;14.320;2023-04-26T10:28:55;98552.00;;;20.60
11321;BMP180;5715;48.234;14.320;2023-04-26T10:32:06;98557.00;;;20.70
11321;BMP180;5715;48.234;14.320;2023-04-26T10:35:28;98539.00;;;21.30
11321;BMP180;5715;48.234;14.320;2023-04-26T10:38:19;98545.00;;;20.50
11321;BMP180;5715;48.234;14.320;2023-04-26T10:41:33;98549.00;;;20.50
11321;BMP180;5715;48.234;14.320;2023-04-26T10:44:41;98543.00;;;20.60
11321;BMP180;5715;48.234;14.320;2023-04-26T10:47:33;98536.00;;;20.70
11321;BMP180;5715;48.234;14.320;2023-04-26T10:50:21;98529.00;;;20.80
11321;BMP180;5715;48.234;14.320;2023-04-26T10:53:09;98531.00;;;21.50
11321;BMP180;5715;48.234;14.320;2023-04-26T10:55:57;98527.00;;;21.70
11321;BMP180;5715;48.234;14.320;2023-04-26T10:58:45;98528.00;;;22.10
11321;BMP180;5715;48.234;14.320;2023-04-26T11:01:33;98531.00;;;21.40
11321;BMP180;5715;48.234;14.320;2023-04-26T11:04:20;98523.00;;;21.20
11321;BMP180;5715;48.234;14.320;2023-04-26T11:07:08;98523.00;;;21.50
11321;BMP180;5715;48.234;14.320;2023-04-26T11:10:00;98524.00;;;21.90
11321;BMP180;5715;48.234;14.320;2023-04-26T11:13:02;98525.00;;;21.60
11321;BMP180;5715;48.234;14.320;2023-04-26T11:16:02;98519.00;;;22.30
11321;BMP180;5715;48.234;14.320;2023-04-26T11:18:54;98526.00;;;22.20
11321;BMP180;5715;48.234;14.320;2023-04-26T11:21:42;98513.00;;;21.40
11321;BMP180;5715;48.234;14.320;2023-04-26T11:24:30;98508.00;;;22.00
11321;BMP180;5715;48.234;14.320;2023-04-26T11:27:19;98510.00;;;22.30
11321;BMP180;5715;48.234;14.320;2023-04-26T11:30:07;98513.00;;;22.60
11321;BMP180;5715;48.234;14.320;2023-04-26T11:32:55;98505.00;;;23.10
11321;BMP180;5715;48.234;14.320;2023-04-26T11:35:43;98514.00;;;23.60
11321;BMP180;5715;48.234;14.320;2023-04-26T11:38:31;98515.00;;;22.30
11321;BMP180;5715;48.234;14.320;2023-04-26T11:41:22;98510.00;;;21.50
11321;BMP180;5715;48.234;14.320;2023-04-26T11:44:11;98504.00;;;22.60
11321;BMP180;5715;48.234;14.320;2023-04-26T11:47:00;98506.00;;;23.20
11321;BMP180;5715;48.234;14.320;2023-04-26T11:49:52;98502.00;;;23.60
11321;BMP180;5715;48.234;14.320;2023-04-26T11:52:40;98492.00;;;23.70
11321;BMP180;5715;48.234;14.320;2023-04-26T11:55:34;98503.00;;;24.00
11321;BMP180;5715;48.234;14.320;2023-04-26T11:58:23;98503.00;;;24.00
11321;BMP180;5715;48.234;14.320;2023-04-26T12:01:10;98499.00;;;23.70
11321;BMP180;5715;48.234;14.320;2023-04-26T12:03:58;98501.00;;;23.60
11321;BMP180;5715;48.234;14.320;2023-04-26T12:06:46;98504.00;;;23.90
11321;BMP180;5715;48.234;14.320;2023-04-26T12:09:40;98507.00;;;23.40
11321;BMP180;5715;48.234;14.320;2023-04-26T12:12:30;98491.00;;;23.20
11321;BMP180;5715;48.234;14.320;2023-04-26T12:15:22;98503.00;;;22.30
11321;BMP180;5715;48.234;14.320;2023-04-26T12:18:10;98505.00;;;22.90
11321;BMP180;5715;48.234;14.320;2023-04-26T12:21:00;98504.00;;;22.70
11321;BMP180;5715;48.234;14.320;2023-04-26T12:23:47;98499.00;;;23.10
11321;BMP180;5715;48.234;14.320;2023-04-26T12:26:43;98504.00;;;23.10
11321;BMP180;5715;48.234;14.320;2023-04-26T12:29:34;98502.00;;;22.20
11321;BMP180;5715;48.234;14.320;2023-04-26T12:32:22;98503.00;;;22.20
11321;BMP180;5715;48.234;14.320;2023-04-26T12:35:10;98500.00;;;22.40
11321;BMP180;5715;48.234;14.320;2023-04-26T12:37:58;98490.00;;;22.20
11321;BMP180;5715;48.234;14.320;2023-04-26T12:40:47;98500.00;;;21.70
11321;BMP180;5715;48.234;14.320;2023-04-26T12:43:35;98499.00;;;21.80
11321;BMP180;5715;48.234;14.320;2023-04-26T12:46:22;98504.00;;;21.70
11321;BMP180;5715;48.234;14.320;2023-04-26T12:49:10;98504.00;;;20.60
11321;BMP180;5715;48.234;14.320;2023-04-26T12:51:58;98496.00;;;20.90
11321;BMP180;5715;48.234;14.320;2023-04-26T12:54:45;98497.00;;;20.60
11321;BMP180;5715;48.234;14.320;2023-04-26T12:57:36;98503.00;;;21.00
11321;BMP180;5715;48.234;14.320;2023-04-26T13:00:24;98497.00;;;21.00
11321;BMP180;5715;48.234;14.320;2023-04-26T13:03:13;98499.00;;;21.80
11321;BMP180;5715;48.234;14.320;2023-04-26T13:06:01;98510.00;;;21.70
11321;BMP180;5715;48.234;14.320;2023-04-26T13:08:49;98503.00;;;21.80
11321;BMP180;5715;48.234;14.320;2023-04-26T13:11:37;98512.00;;;21.60
11321;BMP180;5715;48.234;14.320;2023-04-26T13:14:24;98514.00;;;21.70
11321;BMP180;5715;48.234;14.320;2023-04-26T13:17:12;98504.00;;;22.00
11321;BMP180;5715;48.234;14.320;2023-04-26T13:19:59;98510.00;;;22.30
11321;BMP180;5715;48.234;14.320;2023-04-26T13:22:47;98503.00;;;22.60
11321;BMP180;5715;48.234;14.320;2023-04-26T13:25:34;98497.00;;;21.90
11321;BMP180;5715;48.234;14.320;2023-04-26T13:28:22;98500.00;;;22.00
11321;BMP180;5715;48.234;14.320;2023-04-26T13:31:09;98502.00;;;22.30
11321;BMP180;5715;48.234;14.320;2023-04-26T13:33:58;98509.00;;;22.50
11321;BMP180;5715;48.234;14.320;2023-04-26T13:36:45;98498.00;;;22.60
11321;BMP180;5715;48.234;14.320;2023-04-26T13:39:33;98488.00;;;22.80
11321;BMP180;5715;48.234;14.320;2023-04-26T13:42:21;98490.00;;;22.80
11321;BMP180;5715;48.234;14.320;2023-04-26T13:45:09;98495.00;;;23.20
11321;BMP180;5715;48.234;14.320;2023-04-26T13:47:56;98484.00;;;23.00
11321;BMP180;5715;48.234;14.320;2023-04-26T13:50:44;98484.00;;;23.10
11321;BMP180;5715;48.234;14.320;2023-04-26T13:53:32;98481.00;;;22.90
11321;BMP180;5715;48.234;14.320;2023-04-26T13:56:19;98484.00;;;23.20
11321;BMP180;5715;48.234;14.320;2023-04-26T13:59:07;98483.00;;;22.70
11321;BMP180;5715;48.234;14.320;2023-04-26T14:01:54;98481.00;;;21.90
11321;BMP180;5715;48.234;14.320;2023-04-26T14:04:45;98477.00;;;21.90
11321;BMP180;5715;48.234;14.320;2023-04-26T14:07:33;98476.00;;;22.00
11321;BMP180;5715;48.234;14.320;2023-04-26T14:10:20;98486.00;;;22.00
11321;BMP180;5715;48.234;14.320;2023-04-26T14:13:08;98486.00;;;22.70
11321;BMP180;5715;48.234;14.320;2023-04-26T14:15:55;98477.00;;;22.70
11321;BMP180;5715;48.234;14.320;2023-04-26T14:18:43;98477.00;;;23.00
11321;BMP180;5715;48.234;14.320;2023-04-26T14:21:31;98472.00;;;23.60
11321;BMP180;5715;48.234;14.320;2023-04-26T14:24:18;98469.00;;;23.40
11321;BMP180;5715;48.234;14.320;2023-04-26T14:27:06;98473.00;;;23.70
11321;BMP180;5715;48.234;14.320;2023-04-26T14:29:53;98483.00;;;23.50
11321;BMP180;5715;48.234;14.320;2023-04-26T14:32:42;98474.00;;;23.10
11321;BMP180;5715;48.234;14.320;2023-04-26T14:35:29;98476.00;;;23.90
11321;BMP180;5715;48.234;14.320;2023-04-26T14:38:17;98489.00;;;23.90
11321;BMP180;5715;48.234;14.320;2023-04-26T14:41:05;98485.00;;;23.60
11321;BMP180;5715;48.234;14.320;2023-04-26T14:43:53;98478.00;;;23.80
11321;BMP180;5715;48.234;14.320;2023-04-26T14:46:40;98479.00;;;23.70
11321;BMP180;5715;48.234;14.320;2023-04-26T14:49:28;98469.00;;;23.00
11321;BMP180;5715;48.234;14.320;2023-04-26T14:52:16;98473.00;;;22.60
11321;BMP180;5715;48.234;14.320;2023-04-26T14:55:04;98475.00;;;22.40
11321;BMP180;5715;48.234;14.320;2023-04-26T14:57:52;98467.00;;;22.10
11321;BMP180;5715;48.234;14.320;2023-04-26T15:00:41;98462.00;;;21.80
11321;BMP180;5715;48.234;14.320;2023-04-26T15:03:29;98463.00;;;22.50
11321;BMP180;5715;48.234;14.320;2023-04-26T15:06:17;98460.00;;;22.80
11321;BMP180;5715;48.234;14.320;2023-04-26T15:09:04;98466.00;;;23.00
11321;BMP180;5715;48.234;14.320;2023-04-26T15:11:55;98469.00;;;23.00
11321;BMP180;5715;48.234;14.320;2023-04-26T15:14:42;98472.00;;;23.00
11321;BMP180;5715;48.234;14.320;2023-04-26T15:17:33;98469.00;;;22.50
11321;BMP180;5715;48.234;14.320;2023-04-26T15:20:21;98457.00;;;22.20
11321;BMP180;5715;48.234;14.320;2023-04-26T15:23:09;98473.00;;;22.40
11321;BMP180;5715;48.234;14.320;2023-04-26T15:26:02;98472.00;;;22.50
11321;BMP180;5715;48.234;14.320;2023-04-26T15:28:50;98470.00;;;22.60
11321;BMP180;5715;48.234;14.320;2023-04-26T15:31:37;98471.00;;;22.30
11321;BMP180;5715;48.234;14.320;2023-04-26T15:34:26;98472.00;;;22.50
11321;BMP180;5715;48.234;14.320;2023-04-26T15:37:16;98472.00;;;22.30
11321;BMP180;5715;48.234;14.320;2023-04-26T15:40:04;98467.00;;;22.50
11321;BMP180;5715;48.234;14.320;2023-04-26T15:42:52;98462.00;;;22.20
11321;BMP180;5715;48.234;14.320;2023-04-26T15:45:40;98460.00;;;22.20
11321;BMP180;5715;48.234;14.320;2023-04-26T15:48:28;98456.00;;;21.60
11321;BMP180;5715;48.234;14.320;2023-04-26T15:51:15;98453.00;;;22.20
11321;BMP180;5715;48.234;14.320;2023-04-26T15:54:03;98451.00;;;23.10
11321;BMP180;5715;48.234;14.320;2023-04-26T15:56:51;98457.00;;;23.20
11321;BMP180;5715;48.234;14.320;2023-04-26T15:59:38;98452.00;;;23.00
11321;BMP180;5715;48.234;14.320;2023-04-26T16:02:26;98453.00;;;22.80
11321;BMP180;5715;48.234;14.320;2023-04-26T16:05:14;98451.00;;;22.70
11321;BMP180;5715;48.234;14.320;2023-04-26T16:08:02;98456.00;;;22.50
11321;BMP180;5715;48.234;14.320;2023-04-26T16:10:50;98451.00;;;22.70
11321;BMP180;5715;48.234;14.320;2023-04-26T16:13:37;98452.00;;;22.40
11321;BMP180;5715;48.234;14.320;2023-04-26T16:16:25;98441.00;;;22.10